createdAt,value
2023-04-04T00:02:10.481Z,12.53
2023-04-04T00:04:37.154Z,13.03
2023-04-04T00:07:03.810Z,12.50
2023-04-04T00:09:31.046Z,12.50
2023-04-04T00:11:57.961Z,12.10
2023-04-04T00:14:24.738Z,11.60
2023-04-04T00:16:51.563Z,11.87
2023-04-04T00:19:18.927Z,12.20
2023-04-04T00:21:46.044Z,12.47
2023-04-04T00:24:12.804Z,12.37
2023-04-04T00:26:39.474Z,12.07
2023-04-04T00:29:06.526Z,12.13
2023-04-04T00:31:33.755Z,11.90
2023-04-04T00:34:00.605Z,12.50
2023-04-04T00:36:27.286Z,11.80
2023-04-04T00:38:53.984Z,11.90
2023-04-04T00:41:21.370Z,12.73
2023-04-04T00:43:48.782Z,12.20
2023-04-04T00:46:17.508Z,12.20
2023-04-04T00:48:44.543Z,11.30
2023-04-04T00:51:11.571Z,11.70
2023-04-04T00:53:38.377Z,12.57
2023-04-04T00:56:05.634Z,11.47
2023-04-04T00:58:32.423Z,11.80
2023-04-04T01:01:01.412Z,12.00
2023-04-04T01:03:28.402Z,11.27
2023-04-04T01:05:56.058Z,12.13
2023-04-04T01:08:26.370Z,11.10
2023-04-04T01:10:53.180Z,11.90
2023-04-04T01:13:20.886Z,12.07
2023-04-04T01:15:48.555Z,12.60
2023-04-04T01:18:19.049Z,12.50
2023-04-04T01:21:00.754Z,11.90
2023-04-04T01:23:36.645Z,11.90
2023-04-04T01:26:04.454Z,11.37
2023-04-04T01:28:31.162Z,11.70
2023-04-04T01:31:00.419Z,11.73
2023-04-04T01:33:31.317Z,12.20
2023-04-04T01:36:13.910Z,12.00
2023-04-04T01:39:08.733Z,11.50
2023-04-04T01:41:36.239Z,11.60
2023-04-04T01:44:03.789Z,11.10
2023-04-04T01:46:31.357Z,11.90
2023-04-04T01:48:58.265Z,11.70
2023-04-04T01:51:25.017Z,11.63
2023-04-04T01:53:51.670Z,11.90
2023-04-04T01:56:18.352Z,11.97
2023-04-04T01:58:44.994Z,12.10
2023-04-04T02:01:11.707Z,11.97
2023-04-04T02:03:38.356Z,12.07
2023-04-04T02:06:05.500Z,12.27
2023-04-04T02:08:32.131Z,12.20
2023-04-04T02:10:59.605Z,12.60
2023-04-04T02:13:26.288Z,12.10
2023-04-04T02:15:53.475Z,12.03
2023-04-04T02:18:20.186Z,11.60
2023-04-04T02:20:46.891Z,11.70
2023-04-04T02:23:13.515Z,11.43
2023-04-04T02:25:40.190Z,12.20
2023-04-04T02:28:07.071Z,11.53
2023-04-04T02:30:33.711Z,11.90
2023-04-04T02:33:00.423Z,12.37
2023-04-04T02:35:27.380Z,12.17
2023-04-04T02:37:54.080Z,11.83
2023-04-04T02:40:20.866Z,11.87
2023-04-04T02:42:47.632Z,12.30
2023-04-04T02:45:14.869Z,12.20
2023-04-04T02:47:42.878Z,12.13
2023-04-04T02:50:11.281Z,12.37
2023-04-04T02:52:38.161Z,12.20
2023-04-04T02:55:05.750Z,11.87
2023-04-04T02:57:32.501Z,11.50
2023-04-04T02:59:59.183Z,12.30
2023-04-04T03:02:26.214Z,11.83
2023-04-04T03:04:53.292Z,12.43
2023-04-04T03:07:20.024Z,12.20
2023-04-04T03:09:46.868Z,11.90
2023-04-04T03:12:13.539Z,11.67
2023-04-04T03:14:40.748Z,11.60
2023-04-04T03:17:09.502Z,11.40
2023-04-04T03:19:36.314Z,11.40
2023-04-04T03:22:02.924Z,11.33
2023-04-04T03:24:30.985Z,11.83
2023-04-04T03:26:59.410Z,11.70
2023-04-04T03:29:26.233Z,11.30
2023-04-04T03:31:53.138Z,12.90
2023-04-04T03:34:20.549Z,12.00
2023-04-04T03:36:47.198Z,11.87
2023-04-04T03:39:13.891Z,12.27
2023-04-04T03:41:40.947Z,12.00
2023-04-04T03:44:07.637Z,12.10
2023-04-04T03:46:35.881Z,12.63
2023-04-04T03:49:02.667Z,12.27
2023-04-04T03:51:29.361Z,12.00
2023-04-04T03:53:56.549Z,12.23
2023-04-04T03:56:23.245Z,12.10
2023-04-04T03:58:50.002Z,12.47
2023-04-04T04:01:16.693Z,12.33
2023-04-04T04:03:43.379Z,13.30
2023-04-04T04:06:10.044Z,12.43
2023-04-04T04:08:36.653Z,11.90
2023-04-04T04:11:06.936Z,12.17
2023-04-04T04:13:37.727Z,11.97
2023-04-04T04:16:04.914Z,12.80
2023-04-04T04:18:32.674Z,13.07
2023-04-04T04:21:00.000Z,12.07
2023-04-04T04:23:26.634Z,12.20
2023-04-04T04:25:53.297Z,12.67
2023-04-04T04:28:20.053Z,12.20
2023-04-04T04:30:46.697Z,12.47
2023-04-04T04:33:13.446Z,12.00
2023-04-04T04:35:40.955Z,12.80
2023-04-04T04:38:08.295Z,11.50
2023-04-04T04:40:35.323Z,13.30
2023-04-04T04:43:02.198Z,12.47
2023-04-04T04:45:28.938Z,12.17
2023-04-04T04:47:55.636Z,13.10
2023-04-04T04:50:22.481Z,12.47
2023-04-04T04:52:51.914Z,12.13
2023-04-04T04:55:19.007Z,12.23
2023-04-04T04:57:48.028Z,11.73
2023-04-04T05:00:15.189Z,12.20
2023-04-04T05:02:41.968Z,11.93
2023-04-04T05:05:08.857Z,11.77
2023-04-04T05:07:35.537Z,12.50
2023-04-04T05:10:02.264Z,12.57
2023-04-04T05:12:28.897Z,12.53
2023-04-04T05:14:55.565Z,12.83
2023-04-04T05:17:23.447Z,13.97
2023-04-04T05:19:50.397Z,13.63
2023-04-04T05:22:17.111Z,13.33
2023-04-04T05:24:43.731Z,13.20
2023-04-04T05:27:10.448Z,13.07
2023-04-04T05:29:37.088Z,12.30
2023-04-04T05:32:03.956Z,11.80
2023-04-04T05:34:31.751Z,11.83
2023-04-04T05:36:58.851Z,11.97
2023-04-04T05:39:25.603Z,11.33
2023-04-04T05:41:52.299Z,11.93
2023-04-04T05:44:18.974Z,11.97
2023-04-04T05:46:45.622Z,11.90
2023-04-04T05:49:12.335Z,11.70
2023-04-04T05:51:39.022Z,12.87
2023-04-04T05:54:07.428Z,12.10
2023-04-04T05:56:34.485Z,12.80
2023-04-04T05:59:01.291Z,12.67
2023-04-04T06:01:29.312Z,13.00
2023-04-04T06:04:00.658Z,13.10
2023-04-04T06:06:27.564Z,13.07
2023-04-04T06:08:54.293Z,13.13
2023-04-04T06:11:24.278Z,13.07
2023-04-04T06:13:51.457Z,14.77
2023-04-04T06:16:20.017Z,13.57
2023-04-04T06:18:46.852Z,14.43
2023-04-04T06:21:13.942Z,14.40
2023-04-04T06:23:41.087Z,14.23
2023-04-04T06:26:08.316Z,13.90
2023-04-04T06:28:35.016Z,14.30
2023-04-04T06:31:01.929Z,14.13
2023-04-04T06:33:28.582Z,14.23
2023-04-04T06:35:55.398Z,15.17
2023-04-04T06:38:22.087Z,15.07
2023-04-04T06:40:48.824Z,14.43
2023-04-04T06:43:15.776Z,14.70
2023-04-04T06:45:42.502Z,14.60
2023-04-04T06:48:09.481Z,14.37
2023-04-04T06:50:36.559Z,15.03
2023-04-04T06:53:03.604Z,14.33
2023-04-04T06:55:30.313Z,14.37
2023-04-04T06:57:57.071Z,15.03
2023-04-04T07:00:23.902Z,13.67
2023-04-04T07:02:56.635Z,14.40
2023-04-04T07:05:23.374Z,14.10
2023-04-04T07:07:54.634Z,18.80
2023-04-04T07:10:22.030Z,14.80
2023-04-04T07:12:48.782Z,14.63
2023-04-04T07:15:15.461Z,13.93
2023-04-04T07:17:42.372Z,14.37
2023-04-04T07:20:10.375Z,14.13
2023-04-04T07:22:41.093Z,14.27
2023-04-04T07:25:08.835Z,15.17
2023-04-04T07:27:36.089Z,13.50
2023-04-04T07:30:04.271Z,14.20
2023-04-04T07:32:31.177Z,15.30
2023-04-04T07:34:57.985Z,13.90
2023-04-04T07:37:26.604Z,14.57
2023-04-04T07:39:53.409Z,15.20
2023-04-04T07:42:23.243Z,14.83
2023-04-04T07:44:50.601Z,15.63
2023-04-04T07:47:18.034Z,14.97
2023-04-04T07:49:45.706Z,13.60
2023-04-04T07:52:12.595Z,13.67
2023-04-04T07:54:40.339Z,14.40
2023-04-04T07:57:09.618Z,13.87
2023-04-04T07:59:37.630Z,13.63
2023-04-04T08:02:04.476Z,13.40
2023-04-04T08:04:31.263Z,14.30
2023-04-04T08:06:57.976Z,13.73
2023-04-04T08:09:25.389Z,14.00
2023-04-04T08:11:52.543Z,13.93
2023-04-04T08:14:19.239Z,14.07
2023-04-04T08:16:46.136Z,14.73
2023-04-04T08:19:12.951Z,13.80
2023-04-04T08:21:39.707Z,14.30
2023-04-04T08:24:06.574Z,14.03
2023-04-04T08:26:33.191Z,14.47
2023-04-04T08:28:59.850Z,14.53
2023-04-04T08:31:26.736Z,14.10
2023-04-04T08:33:53.515Z,14.67
2023-04-04T08:36:20.200Z,14.40
2023-04-04T08:38:46.863Z,14.20
2023-04-04T08:41:15.597Z,15.70
2023-04-04T08:43:46.471Z,14.50
2023-04-04T08:46:15.618Z,14.20
2023-04-04T08:48:44.635Z,14.60
2023-04-04T08:51:14.000Z,14.07
2023-04-04T08:53:40.663Z,15.73
2023-04-04T08:56:07.460Z,14.50
2023-04-04T08:58:34.461Z,14.13
2023-04-04T09:01:01.310Z,14.43
2023-04-04T09:03:32.973Z,15.67
2023-04-04T09:06:01.156Z,13.80
2023-04-04T09:08:29.840Z,13.80
2023-04-04T09:10:57.200Z,14.07
2023-04-04T09:13:23.902Z,14.40
2023-04-04T09:15:52.437Z,14.40
2023-04-04T09:18:19.268Z,14.60
2023-04-04T09:20:49.641Z,14.27
2023-04-04T09:23:18.539Z,13.73
2023-04-04T09:26:04.086Z,14.60
2023-04-04T09:28:31.968Z,14.83
2023-04-04T09:31:02.192Z,15.00
2023-04-04T09:33:31.764Z,14.27
2023-04-04T09:36:02.348Z,14.30
2023-04-04T09:38:30.263Z,13.97
2023-04-04T09:40:57.322Z,13.83
2023-04-04T09:43:25.562Z,14.13
2023-04-04T09:45:54.856Z,14.30
2023-04-04T09:48:33.284Z,13.90
2023-04-04T09:51:00.569Z,13.30
2023-04-04T09:53:27.948Z,13.90
2023-04-04T09:55:56.069Z,14.37
2023-04-04T09:58:28.609Z,14.40
2023-04-04T10:01:12.527Z,14.00
2023-04-04T10:03:39.762Z,13.20
2023-04-04T10:06:08.154Z,14.50
2023-04-04T10:08:38.925Z,14.70
2023-04-04T10:11:11.814Z,14.40
2023-04-04T10:13:44.608Z,14.40
2023-04-04T10:16:12.035Z,14.50
2023-04-04T10:18:39.623Z,14.73
2023-04-04T10:23:41.242Z,14.00
2023-04-04T10:26:07.944Z,14.90
2023-04-04T10:28:34.768Z,14.67
2023-04-04T10:31:22.806Z,13.90
2023-04-04T10:34:24.391Z,14.17
2023-04-04T10:36:54.186Z,14.40
2023-04-04T10:39:27.357Z,14.00
2023-04-04T10:41:56.348Z,14.17
2023-04-04T10:44:30.316Z,15.57
2023-04-04T10:46:59.650Z,14.00
2023-04-04T10:49:27.790Z,14.27
2023-04-04T10:51:57.406Z,14.00
2023-04-04T10:54:26.716Z,13.80
2023-04-04T10:56:55.139Z,15.23
2023-04-04T10:59:25.379Z,14.97
2023-04-04T11:02:00.202Z,15.80
2023-04-04T11:04:39.211Z,13.67
2023-04-04T11:07:13.940Z,14.03
2023-04-04T11:09:50.623Z,14.90
2023-04-04T11:12:23.217Z,14.70
2023-04-04T11:14:56.895Z,13.90
2023-04-04T11:17:43.450Z,14.00
2023-04-04T11:20:23.620Z,14.00
2023-04-04T11:22:51.609Z,14.70
2023-04-04T11:25:36.000Z,14.47
2023-04-04T11:28:08.065Z,14.23
2023-04-04T11:30:44.103Z,14.70
2023-04-04T11:33:12.422Z,13.97
2023-04-04T11:35:40.976Z,14.30
2023-04-04T11:38:16.371Z,14.33
2023-04-04T11:40:52.816Z,13.33
2023-04-04T11:43:20.424Z,14.80
2023-04-04T11:45:48.008Z,14.83
2023-04-04T11:48:17.260Z,14.43
2023-04-04T11:50:49.481Z,14.50
2023-04-04T11:53:17.404Z,14.53
2023-04-04T11:55:47.458Z,13.90
2023-04-04T11:58:16.318Z,13.60
2023-04-04T12:00:44.102Z,14.37
2023-04-04T12:03:12.307Z,14.50
2023-04-04T12:05:43.943Z,14.90
2023-04-04T12:08:12.372Z,13.83
2023-04-04T12:10:40.662Z,14.07
2023-04-04T12:13:09.381Z,13.80
2023-04-04T12:15:37.180Z,13.37
2023-04-04T12:18:08.238Z,13.47
2023-04-04T12:20:38.503Z,13.87
2023-04-04T12:23:05.157Z,13.70
2023-04-04T12:25:34.100Z,14.07
2023-04-04T12:28:03.613Z,14.53
2023-04-04T12:30:30.547Z,14.03
2023-04-04T12:32:58.070Z,13.13
2023-04-04T12:35:24.846Z,13.80
2023-04-04T12:38:16.250Z,14.00
2023-04-04T12:40:45.012Z,13.63
2023-04-04T12:43:17.480Z,14.23
2023-04-04T12:45:44.686Z,13.57
2023-04-04T12:48:17.994Z,14.50
2023-04-04T12:50:56.766Z,13.27
2023-04-04T12:53:29.520Z,14.13
2023-04-04T12:56:02.318Z,13.10
2023-04-04T12:58:29.340Z,13.13
2023-04-04T13:01:00.316Z,14.27
2023-04-04T13:03:28.647Z,13.90
2023-04-04T13:05:55.478Z,12.63
2023-04-04T13:08:22.347Z,12.53
2023-04-04T13:11:03.720Z,12.60
2023-04-04T13:13:41.251Z,14.00
2023-04-04T13:16:29.047Z,12.80
2023-04-04T13:18:55.991Z,13.80
2023-04-04T13:21:23.224Z,12.90
2023-04-04T13:23:49.933Z,12.27
2023-04-04T13:26:16.687Z,12.33
2023-04-04T13:28:43.397Z,12.70
2023-04-04T13:31:11.665Z,13.90
2023-04-04T13:33:38.929Z,13.70
2023-04-04T13:36:06.550Z,12.57
2023-04-04T13:38:33.208Z,13.53
2023-04-04T13:41:00.659Z,13.10
2023-04-04T13:43:27.574Z,12.83
2023-04-04T13:45:55.561Z,13.00
2023-04-04T13:48:22.786Z,12.60
2023-04-04T13:50:53.107Z,12.70
2023-04-04T13:53:20.514Z,13.10
2023-04-04T13:56:13.189Z,12.80
2023-04-04T13:58:33.892Z,13.80
2023-04-04T14:01:06.698Z,14.97
2023-04-04T14:03:33.451Z,14.43
2023-04-04T14:06:06.290Z,12.23
2023-04-04T14:08:36.373Z,12.77
2023-04-04T14:11:03.324Z,12.40
2023-04-04T14:13:30.074Z,12.90
2023-04-04T14:15:56.826Z,13.77
2023-04-04T14:18:23.541Z,13.73
2023-04-04T14:20:50.342Z,12.83
2023-04-04T14:23:17.077Z,12.30
2023-04-04T14:25:43.759Z,13.30
2023-04-04T14:28:10.452Z,13.97
2023-04-04T14:30:37.102Z,12.70
2023-04-04T14:33:03.897Z,12.50
2023-04-04T14:35:30.744Z,15.07
2023-04-04T14:37:57.353Z,13.10
2023-04-04T14:40:24.020Z,14.23
2023-04-04T14:42:50.716Z,12.60
2023-04-04T14:45:17.689Z,14.97
2023-04-04T14:47:44.322Z,13.63
2023-04-04T14:50:11.117Z,13.63
2023-04-04T14:52:37.764Z,12.83
2023-04-04T14:55:05.091Z,12.50
2023-04-04T14:57:39.008Z,12.70
2023-04-04T15:00:10.180Z,13.57
2023-04-04T15:02:37.007Z,14.60
2023-04-04T15:05:04.175Z,13.33
2023-04-04T15:07:31.132Z,13.13
2023-04-04T15:09:57.887Z,12.63
2023-04-04T15:12:24.553Z,14.27
2023-04-04T15:14:51.640Z,12.20
2023-04-04T15:17:18.320Z,12.70
2023-04-04T15:19:45.007Z,12.60
2023-04-04T15:22:11.630Z,12.93
2023-04-04T15:24:38.790Z,12.50
2023-04-04T15:27:05.623Z,13.50
2023-04-04T15:29:32.272Z,12.63
2023-04-04T15:31:58.918Z,14.60
2023-04-04T15:34:25.820Z,12.03
2023-04-04T15:36:52.747Z,12.50
2023-04-04T15:39:19.624Z,12.90
2023-04-04T15:41:46.332Z,12.80
2023-04-04T15:44:12.964Z,13.07
2023-04-04T15:46:39.597Z,12.90
2023-04-04T15:49:06.543Z,13.73
2023-04-04T15:51:33.525Z,13.13
2023-04-04T15:54:00.308Z,13.63
2023-04-04T15:56:27.801Z,12.50
2023-04-04T15:58:55.690Z,12.53
2023-04-04T16:01:23.274Z,13.67
2023-04-04T16:03:50.112Z,12.00
2023-04-04T16:06:16.898Z,12.97
2023-04-04T16:08:43.793Z,12.30
2023-04-04T16:11:10.588Z,12.60
2023-04-04T16:13:37.258Z,13.67
2023-04-04T16:16:04.069Z,13.17
2023-04-04T16:18:30.902Z,12.20
2023-04-04T16:20:57.638Z,13.47
2023-04-04T16:23:24.287Z,12.90
2023-04-04T16:25:51.037Z,12.27
2023-04-04T16:28:20.880Z,11.77
2023-04-04T16:30:47.643Z,12.20
2023-04-04T16:33:14.363Z,11.93
2023-04-04T16:35:41.065Z,12.03
2023-04-04T16:38:08.761Z,11.40
2023-04-04T16:40:35.691Z,11.67
2023-04-04T16:43:02.392Z,11.60
2023-04-04T16:45:29.573Z,13.03
2023-04-04T16:47:56.284Z,13.50
2023-04-04T16:50:22.980Z,11.47
2023-04-04T16:52:49.652Z,11.10
2023-04-04T16:55:16.790Z,12.70
2023-04-04T16:57:43.699Z,12.97
2023-04-04T17:00:10.902Z,12.33
2023-04-04T17:02:45.576Z,13.07
2023-04-04T17:05:13.991Z,12.27
2023-04-04T17:07:41.179Z,13.20
2023-04-04T17:10:09.320Z,12.93
2023-04-04T17:12:36.194Z,11.27
2023-04-04T17:15:04.027Z,11.90
2023-04-04T17:17:30.769Z,12.07
2023-04-04T17:19:57.601Z,11.60
2023-04-04T17:22:24.587Z,12.00
2023-04-04T17:24:51.203Z,12.60
2023-04-04T17:27:18.030Z,12.63
2023-04-04T17:29:45.587Z,12.37
2023-04-04T17:32:12.572Z,11.50
2023-04-04T17:34:39.387Z,11.60
2023-04-04T17:37:11.150Z,11.37
2023-04-04T17:39:38.333Z,11.60
2023-04-04T17:42:05.885Z,12.50
2023-04-04T17:44:32.537Z,11.70
2023-04-04T17:47:00.351Z,12.17
2023-04-04T17:49:27.209Z,12.17
2023-04-04T17:51:53.968Z,13.37
2023-04-04T17:54:21.553Z,12.53
2023-04-04T17:56:50.151Z,11.70
2023-04-04T17:59:17.466Z,11.90
2023-04-04T18:01:44.777Z,12.07
2023-04-04T18:04:12.092Z,12.77
2023-04-04T18:06:40.431Z,12.40
2023-04-04T18:09:10.051Z,13.20
2023-04-04T18:11:37.373Z,12.20
2023-04-04T18:14:04.229Z,12.40
2023-04-04T18:16:38.035Z,12.07
2023-04-04T18:19:06.631Z,12.50
2023-04-04T18:21:33.245Z,13.60
2023-04-04T18:23:59.869Z,12.50
2023-04-04T18:26:26.515Z,12.27
2023-04-04T18:28:53.126Z,11.80
2023-04-04T18:31:19.878Z,12.17
2023-04-04T18:33:48.005Z,12.40
2023-04-04T18:36:14.651Z,12.03
2023-04-04T18:38:41.505Z,12.30
2023-04-04T18:41:08.404Z,12.17
2023-04-04T18:43:35.551Z,11.80
2023-04-04T18:46:04.419Z,12.00
2023-04-04T18:48:35.572Z,12.30
2023-04-04T18:51:02.286Z,12.30
2023-04-04T18:53:31.866Z,11.90
2023-04-04T18:55:59.195Z,11.70
2023-04-04T18:58:26.546Z,11.60
2023-04-04T19:00:54.388Z,12.10
2023-04-04T19:03:22.068Z,11.50
2023-04-04T19:05:49.600Z,11.50
2023-04-04T19:08:17.464Z,11.70
2023-04-04T19:10:50.670Z,11.40
2023-04-04T19:13:18.055Z,11.97
2023-04-04T19:15:44.873Z,11.97
2023-04-04T19:18:11.948Z,11.87
2023-04-04T19:20:41.939Z,11.87
2023-04-04T19:23:08.704Z,12.03
2023-04-04T19:25:35.362Z,12.40
2023-04-04T19:28:02.495Z,11.90
2023-04-04T19:30:44.859Z,11.63
2023-04-04T19:33:21.536Z,11.90
2023-04-04T19:35:53.301Z,11.80
2023-04-04T19:38:28.048Z,11.70
2023-04-04T19:40:59.913Z,11.97
2023-04-04T19:43:28.038Z,11.97
2023-04-04T19:45:56.596Z,12.10
2023-04-04T19:48:37.552Z,11.40
2023-04-04T19:51:08.126Z,11.30
2023-04-04T19:53:34.864Z,11.90
2023-04-04T19:56:07.336Z,11.30
2023-04-04T19:58:34.180Z,11.80
2023-04-04T20:01:01.139Z,11.50
2023-04-04T20:03:50.317Z,11.50
2023-04-04T20:06:24.348Z,12.67
2023-04-04T20:08:52.046Z,11.90
2023-04-04T20:11:22.623Z,11.70
2023-04-04T20:13:50.476Z,11.73
2023-04-04T20:16:17.672Z,11.80
2023-04-04T20:18:46.338Z,11.93
2023-04-04T20:21:16.832Z,11.80
2023-04-04T20:24:09.887Z,11.80
2023-04-04T20:26:54.202Z,14.10
2023-04-04T20:29:28.225Z,11.70
2023-04-04T20:31:59.198Z,11.80
2023-04-04T20:34:36.359Z,11.50
2023-04-04T20:37:07.096Z,12.07
2023-04-04T20:39:45.012Z,11.40
2023-04-04T20:42:16.938Z,11.20
2023-04-04T20:44:43.572Z,11.60
2023-04-04T20:47:49.230Z,11.60
2023-04-04T20:50:39.211Z,11.47
2023-04-04T20:53:07.287Z,11.60
2023-04-04T20:55:35.424Z,14.63
2023-04-04T20:58:08.591Z,11.33
2023-04-04T21:00:42.476Z,11.50
2023-04-04T21:03:31.462Z,11.20
2023-04-04T21:06:18.359Z,11.20
2023-04-04T21:08:49.927Z,11.20
2023-04-04T21:11:29.046Z,11.50
2023-04-04T21:13:56.911Z,11.70
2023-04-04T21:16:26.677Z,11.33
2023-04-04T21:19:02.689Z,11.30
2023-04-04T21:21:29.560Z,11.40
2023-04-04T21:23:58.221Z,11.50
2023-04-04T21:26:33.404Z,11.20
2023-04-04T21:29:03.350Z,11.20
2023-04-04T21:31:36.026Z,11.40
2023-04-04T21:34:08.708Z,11.50
2023-04-04T21:36:35.474Z,11.40
2023-04-04T21:39:07.555Z,11.60
2023-04-04T21:41:35.313Z,11.20
2023-04-04T21:44:04.340Z,11.50
2023-04-04T21:46:35.959Z,11.30
2023-04-04T21:49:03.618Z,11.20
2023-04-04T21:51:30.387Z,11.37
2023-04-04T21:53:57.347Z,11.43
2023-04-04T21:56:32.779Z,11.20
2023-04-04T21:59:01.824Z,11.40
2023-04-04T22:01:30.319Z,10.90
2023-04-04T22:03:58.148Z,10.70
2023-04-04T22:06:26.410Z,11.00
2023-04-04T22:08:54.470Z,10.73
2023-04-04T22:11:21.191Z,10.87
2023-04-04T22:13:49.216Z,11.40
2023-04-04T22:16:18.658Z,10.43
2023-04-04T22:18:51.922Z,10.20
2023-04-04T22:21:25.920Z,10.20
2023-04-04T22:24:01.947Z,12.80
2023-04-04T22:26:31.959Z,11.40
2023-04-04T22:29:00.253Z,10.90
2023-04-04T22:31:27.554Z,10.90
2023-04-04T22:33:54.297Z,12.73
2023-04-04T22:36:21.930Z,10.87
2023-04-04T22:38:49.352Z,10.80
2023-04-04T22:41:16.047Z,11.00
2023-04-04T22:43:42.673Z,11.10
2023-04-04T22:46:09.318Z,10.90
2023-04-04T22:48:41.335Z,11.00
2023-04-04T22:51:08.224Z,10.60
2023-04-04T22:53:34.877Z,10.90
2023-04-04T22:56:01.575Z,11.10
2023-04-04T22:58:28.169Z,11.13
2023-04-04T23:00:54.888Z,10.90
2023-04-04T23:03:21.726Z,10.87
2023-04-04T23:05:48.381Z,10.53
2023-04-04T23:08:15.006Z,11.10
2023-04-04T23:10:41.836Z,10.70
2023-04-04T23:13:08.708Z,10.90
2023-04-04T23:15:37.781Z,10.60
2023-04-04T23:18:04.797Z,10.30
2023-04-04T23:20:32.212Z,10.87
2023-04-04T23:22:59.434Z,10.83
2023-04-04T23:25:26.421Z,10.53
2023-04-04T23:27:53.622Z,10.70
2023-04-04T23:30:20.964Z,10.43
2023-04-04T23:32:47.575Z,10.30
2023-04-04T23:35:14.227Z,10.23
2023-04-04T23:37:40.849Z,11.27
2023-04-04T23:40:08.891Z,10.30
2023-04-04T23:42:35.535Z,10.40
2023-04-04T23:45:02.236Z,10.80
2023-04-04T23:47:29.067Z,11.10
2023-04-04T23:49:56.101Z,17.27
2023-04-04T23:52:23.279Z,10.90
2023-04-04T23:54:49.968Z,11.20
2023-04-04T23:57:16.666Z,11.10
2023-04-04T23:59:43.307Z,10.90
